Time;durP1;ratioP1;P1;durP2;ratioP2;P2;SDS_P1;SDS_P2;PMS_P1;PMS_P2;Temp;Humidity;BMP_temperature;BMP_pressure;BME280_temperature;BME280_humidity;BME280_pressure;Samples;Min_cycle;Max_cycle;Signal;HPM_P1;HPM_P2
2023/08/24 00:00:26;;;;;;;15.53;7.10;;;20.30;98.00;;;;;;4962255;28;20515;-68
2023/08/24 00:02:53;;;;;;;12.67;7.80;;;20.40;98.00;;;;;;4978524;28;20823;-68
2023/08/24 00:05:21;;;;;;;13.27;7.80;;;20.40;98.00;;;;;;4995753;28;20460;-67
2023/08/24 00:07:49;;;;;;;15.23;7.57;;;20.40;98.00;;;;;;4995910;28;20452;-67
2023/08/24 00:10:17;;;;;;;13.17;7.10;;;20.40;98.00;;;;;;4995633;28;20596;-67
2023/08/24 00:12:45;;;;;;;10.43;6.90;;;20.40;98.00;;;;;;4995873;28;20833;-67
2023/08/24 00:15:19;;;;;;;10.93;6.97;;;20.30;98.00;;;;;;4995683;28;20816;-68
2023/08/24 00:17:47;;;;;;;13.03;7.30;;;20.40;98.00;;;;;;4995577;28;20465;-67
2023/08/24 00:20:14;;;;;;;11.20;7.20;;;20.60;98.00;;;;;;4995242;28;20448;-68
2023/08/24 00:22:41;;;;;;;10.07;6.73;;;20.70;98.00;;;;;;4995703;28;20483;-67
2023/08/24 00:25:09;;;;;;;10.90;6.77;;;20.60;98.00;;;;;;4995115;28;20448;-67
2023/08/24 00:27:38;;;;;;;16.60;7.70;;;20.70;98.00;;;;;;4995231;28;20492;-67
2023/08/24 00:30:07;;;;;;;12.13;7.03;;;20.50;98.00;;;;;;4994961;28;20491;-68
2023/08/24 00:32:35;;;;;;;11.60;7.40;;;20.40;98.00;;;;;;4995030;28;20464;-67
2023/08/24 00:35:03;;;;;;;11.30;6.60;;;20.20;98.00;;;;;;4994969;28;20464;-68
2023/08/24 00:37:31;;;;;;;12.53;7.37;;;20.20;98.00;;;;;;4995000;28;20544;-67
2023/08/24 00:39:58;;;;;;;13.40;7.37;;;20.20;98.00;;;;;;4994463;28;20975;-67
2023/08/24 00:42:26;;;;;;;12.20;7.50;;;20.20;98.00;;;;;;4994878;28;20477;-67
2023/08/24 00:44:54;;;;;;;11.90;7.20;;;20.20;98.00;;;;;;4977808;28;20512;-67
2023/08/24 00:47:22;;;;;;;13.20;7.47;;;20.20;98.00;;;;;;4994830;28;20444;-67
2023/08/24 00:49:49;;;;;;;12.63;7.50;;;20.20;98.00;;;;;;4977595;28;20489;-67
2023/08/24 00:52:17;;;;;;;12.90;7.00;;;20.10;98.00;;;;;;4994624;28;20448;-67
2023/08/24 00:54:44;;;;;;;12.50;7.60;;;20.00;98.00;;;;;;4994596;28;20457;-68
2023/08/24 00:57:12;;;;;;;12.97;7.43;;;20.10;98.00;;;;;;4994726;28;20448;-68
2023/08/24 00:59:39;;;;;;;15.50;7.53;;;20.10;98.00;;;;;;4994709;28;20468;-68
2023/08/24 01:02:08;;;;;;;15.10;7.63;;;20.00;98.00;;;;;;4994895;28;20448;-68
2023/08/24 01:04:35;;;;;;;11.97;7.07;;;19.90;98.00;;;;;;4977231;28;20633;-67
2023/08/24 01:07:03;;;;;;;12.07;7.30;;;20.00;98.00;;;;;;4977873;28;20460;-68
2023/08/24 01:09:30;;;;;;;12.73;7.50;;;20.10;98.00;;;;;;4994457;28;20488;-68
2023/08/24 01:12:06;;;;;;;15.80;7.73;;;20.20;98.00;;;;;;4994629;28;20449;-67
2023/08/24 01:14:42;;;;;;;14.70;7.13;;;19.90;98.00;;;;;;4994400;28;20452;-67
2023/08/24 01:17:34;;;;;;;12.67;7.20;;;19.90;98.00;;;;;;4994270;28;20514;-68
2023/08/24 01:20:04;;;;;;;15.90;8.10;;;20.10;98.00;;;;;;4994242;28;20461;-67
2023/08/24 01:22:37;;;;;;;9.90;6.30;;;19.90;98.00;;;;;;4994666;28;20456;-68
2023/08/24 01:25:12;;;;;;;12.43;7.53;;;19.80;98.00;;;;;;4994153;28;20464;-68
2023/08/24 01:27:41;;;;;;;14.57;7.97;;;19.60;98.00;;;;;;4993988;28;20555;-68
2023/08/24 01:30:10;;;;;;;14.10;7.57;;;19.60;98.00;;;;;;4994080;28;20511;-68
2023/08/24 01:32:38;;;;;;;15.00;7.90;;;19.60;98.00;;;;;;4993868;28;20449;-68
2023/08/24 01:35:08;;;;;;;13.60;7.57;;;19.50;98.00;;;;;;4993923;28;20550;-68
2023/08/24 01:37:37;;;;;;;13.83;7.57;;;19.50;98.00;;;;;;4993858;28;20456;-67
2023/08/24 01:40:10;;;;;;;13.27;6.63;;;19.60;98.00;;;;;;4993830;28;20547;-68
2023/08/24 01:42:44;;;;;;;14.03;7.00;;;19.70;98.00;;;;;;4976462;28;20524;-67
2023/08/24 01:45:12;;;;;;;13.30;7.50;;;19.80;98.00;;;;;;4993972;28;20460;-67
2023/08/24 01:47:42;;;;;;;12.60;7.03;;;19.70;98.00;;;;;;4993791;28;20464;-67
2023/08/24 01:50:10;;;;;;;15.63;7.67;;;19.60;98.00;;;;;;4993378;28;20484;-68
2023/08/24 01:52:39;;;;;;;12.40;7.00;;;19.50;98.00;;;;;;4976140;28;21175;-67
2023/08/24 01:55:07;;;;;;;13.63;7.50;;;19.40;98.00;;;;;;4993585;28;20467;-68
2023/08/24 01:57:35;;;;;;;12.43;7.30;;;19.50;98.00;;;;;;4993847;28;20523;-68
2023/08/24 02:00:06;;;;;;;13.13;7.20;;;19.70;98.00;;;;;;4992966;28;20483;-67
2023/08/24 02:02:35;;;;;;;15.03;6.97;;;19.80;98.00;;;;;;4993881;28;20787;-68
2023/08/24 02:05:03;;;;;;;12.00;7.13;;;19.80;98.00;;;;;;4993372;28;20461;-68
2023/08/24 02:07:30;;;;;;;13.23;7.37;;;19.90;98.00;;;;;;4993355;28;20460;-67
2023/08/24 02:09:57;;;;;;;13.70;7.17;;;19.90;98.00;;;;;;4993306;28;20881;-67
2023/08/24 02:12:24;;;;;;;13.20;7.40;;;19.60;98.00;;;;;;4993174;28;20452;-67
2023/08/24 02:14:51;;;;;;;14.30;7.83;;;19.60;98.00;;;;;;4993106;28;20448;-68
2023/08/24 02:17:20;;;;;;;12.30;7.30;;;19.40;98.00;;;;;;4975889;28;20871;-67
2023/08/24 02:19:47;;;;;;;13.07;7.80;;;19.30;98.00;;;;;;4993184;28;20514;-67
2023/08/24 02:22:14;;;;;;;16.00;8.00;;;19.30;98.00;;;;;;4975959;28;20463;-68
2023/08/24 02:24:41;;;;;;;13.23;7.47;;;19.30;98.00;;;;;;4993146;28;20867;-68
2023/08/24 02:27:08;;;;;;;14.90;7.80;;;19.40;98.00;;;;;;4975773;28;20461;-68
2023/08/24 02:29:35;;;;;;;13.67;7.33;;;19.50;98.00;;;;;;4992993;28;20966;-67
2023/08/24 02:32:02;;;;;;;14.27;7.93;;;19.50;98.00;;;;;;4992713;28;20489;-68
2023/08/24 02:34:31;;;;;;;13.60;7.90;;;19.20;98.00;;;;;;4992981;28;20498;-67
2023/08/24 02:36:58;;;;;;;20.00;7.50;;;19.10;98.00;;;;;;4993006;28;20452;-69
2023/08/24 02:39:27;;;;;;;14.20;7.63;;;19.00;98.00;;;;;;4975692;28;20456;-67
2023/08/24 02:41:55;;;;;;;12.83;7.40;;;19.10;98.00;;;;;;4992952;28;20452;-69
2023/08/24 02:44:22;;;;;;;14.80;8.30;;;19.10;98.00;;;;;;4992973;28;20456;-68
2023/08/24 02:46:49;;;;;;;13.17;7.83;;;19.10;98.00;;;;;;4992944;28;20511;-67
2023/08/24 02:49:16;;;;;;;16.57;8.20;;;19.10;98.00;;;;;;4992777;28;20448;-67
2023/08/24 02:51:45;;;;;;;14.50;7.80;;;19.00;98.00;;;;;;4992913;28;20488;-67
2023/08/24 02:54:12;;;;;;;11.83;7.20;;;19.00;98.00;;;;;;4992728;28;21054;-69
2023/08/24 02:56:39;;;;;;;15.00;7.80;;;19.00;98.00;;;;;;4975868;28;20510;-67
2023/08/24 02:59:10;;;;;;;12.30;7.20;;;19.10;98.00;;;;;;4992919;28;20829;-67
2023/08/24 03:01:38;;;;;;;14.97;7.87;;;19.10;98.00;;;;;;4992774;28;20455;-67
2023/08/24 03:04:05;;;;;;;13.30;7.57;;;19.00;98.00;;;;;;4992332;28;20504;-67
2023/08/24 03:06:32;;;;;;;13.97;7.63;;;19.00;98.00;;;;;;4992530;28;20460;-68
2023/08/24 03:09:03;;;;;;;14.10;7.40;;;19.10;98.00;;;;;;4991806;28;20498;-69
2023/08/24 03:11:30;;;;;;;12.30;7.63;;;19.20;98.00;;;;;;4992404;28;20496;-67
2023/08/24 03:13:57;;;;;;;12.17;7.60;;;19.40;98.00;;;;;;4975162;28;20480;-67
2023/08/24 03:16:26;;;;;;;11.83;7.30;;;19.50;98.00;;;;;;4992373;28;20445;-68
2023/08/24 03:18:53;;;;;;;12.77;7.63;;;19.50;98.00;;;;;;4975096;28;20467;-67
2023/08/24 03:21:20;;;;;;;13.00;8.13;;;19.60;98.00;;;;;;4992393;28;20448;-68
2023/08/24 03:23:47;;;;;;;14.23;7.80;;;19.50;98.00;;;;;;4992451;28;20460;-67
2023/08/24 03:26:20;;;;;;;14.30;7.50;;;19.40;98.00;;;;;;4992369;28;20467;-69
2023/08/24 03:28:47;;;;;;;14.30;8.10;;;19.20;98.00;;;;;;4992262;28;20465;-68
2023/08/24 03:31:14;;;;;;;11.40;7.10;;;19.10;98.00;;;;;;4992049;28;20550;-68
2023/08/24 03:33:41;;;;;;;15.03;8.00;;;18.90;98.00;;;;;;4992566;28;20783;-67
2023/08/24 03:36:08;;;;;;;12.70;8.00;;;18.90;98.00;;;;;;4992544;28;20462;-67
2023/08/24 03:38:35;;;;;;;13.47;7.70;;;19.00;98.00;;;;;;4992275;28;20507;-68
2023/08/24 03:41:02;;;;;;;12.40;7.30;;;19.10;98.00;;;;;;4992458;28;20493;-68
2023/08/24 03:43:34;;;;;;;12.47;7.60;;;19.10;98.00;;;;;;4992239;28;20484;-67
2023/08/24 03:46:01;;;;;;;13.90;8.23;;;19.10;98.00;;;;;;4992617;28;20461;-68
2023/08/24 03:48:29;;;;;;;11.77;7.10;;;19.20;98.00;;;;;;4991863;28;20455;-67
2023/08/24 03:50:56;;;;;;;14.17;7.20;;;19.20;98.00;;;;;;4992486;28;20806;-67
2023/08/24 03:53:23;;;;;;;13.43;7.77;;;19.20;98.00;;;;;;4992271;28;20543;-67
2023/08/24 03:55:51;;;;;;;12.23;7.07;;;19.10;98.00;;;;;;4992164;28;20464;-67
2023/08/24 03:58:19;;;;;;;12.03;7.60;;;19.10;98.00;;;;;;4991381;28;20444;-67
2023/08/24 04:00:47;;;;;;;13.90;8.17;;;19.00;98.00;;;;;;4992018;28;20457;-68
2023/08/24 04:03:15;;;;;;;16.33;7.93;;;19.00;98.00;;;;;;4992052;28;20511;-68
2023/08/24 04:05:42;;;;;;;15.90;8.40;;;19.00;98.00;;;;;;4974720;28;20464;-67
2023/08/24 04:08:09;;;;;;;17.30;8.67;;;18.80;98.00;;;;;;4974645;28;20950;-67
2023/08/24 04:10:38;;;;;;;13.40;7.63;;;18.80;98.00;;;;;;4991658;28;20457;-67
2023/08/24 04:13:05;;;;;;;13.73;7.87;;;18.80;98.00;;;;;;4991997;28;20460;-68
2023/08/24 04:15:32;;;;;;;12.03;7.27;;;18.80;98.00;;;;;;4994533;28;20545;-67
2023/08/24 04:18:01;;;;;;;13.13;7.67;;;19.00;98.00;;;;;;4995510;28;20460;-67
2023/08/24 04:20:28;;;;;;;13.17;8.20;;;19.20;98.00;;;;;;4995324;28;20463;-68
2023/08/24 04:22:56;;;;;;;13.67;7.53;;;19.40;98.00;;;;;;4995473;28;20456;-67
2023/08/24 04:25:23;;;;;;;11.93;7.20;;;19.40;98.00;;;;;;4995171;28;20538;-67
2023/08/24 04:27:50;;;;;;;14.70;7.77;;;19.30;98.00;;;;;;4995143;28;20483;-68
2023/08/24 04:30:17;;;;;;;14.20;7.70;;;19.30;98.00;;;;;;4994904;28;20457;-67
2023/08/24 04:32:44;;;;;;;12.53;7.20;;;19.30;98.00;;;;;;4995282;28;20484;-68
2023/08/24 04:35:13;;;;;;;15.83;7.90;;;19.10;98.00;;;;;;4995158;28;20449;-68
2023/08/24 04:37:40;;;;;;;14.27;8.10;;;19.10;98.00;;;;;;4995274;28;20456;-66
2023/08/24 04:40:08;;;;;;;14.93;8.03;;;19.20;98.00;;;;;;4995094;28;20475;-67
2023/08/24 04:42:35;;;;;;;13.17;7.70;;;19.30;98.00;;;;;;4995290;28;20548;-67
2023/08/24 04:45:02;;;;;;;13.53;7.80;;;19.30;98.00;;;;;;4977737;28;20461;-69
2023/08/24 04:47:29;;;;;;;15.23;8.10;;;19.30;98.00;;;;;;4995408;28;20530;-68
2023/08/24 04:49:57;;;;;;;15.90;7.60;;;19.30;98.00;;;;;;4994894;28;20487;-67
2023/08/24 04:52:26;;;;;;;13.00;7.47;;;19.30;98.00;;;;;;4977876;28;20491;-68
2023/08/24 04:54:53;;;;;;;12.03;7.70;;;19.50;98.00;;;;;;4994586;28;20459;-67
2023/08/24 04:57:20;;;;;;;13.97;7.90;;;19.50;98.00;;;;;;4977537;28;20459;-68
2023/08/24 04:59:47;;;;;;;19.70;8.67;;;19.60;98.00;;;;;;4994440;28;20452;-67
2023/08/24 05:02:14;;;;;;;14.47;7.80;;;19.70;98.00;;;;;;4994719;28;20460;-68
2023/08/24 05:04:41;;;;;;;15.00;8.27;;;19.80;98.00;;;;;;4994560;28;20519;-68
2023/08/24 05:07:08;;;;;;;15.77;8.30;;;19.60;98.00;;;;;;4994636;28;20460;-67
2023/08/24 05:09:36;;;;;;;12.10;7.70;;;19.70;98.00;;;;;;4994293;28;20452;-68
2023/08/24 05:12:04;;;;;;;15.90;7.33;;;19.70;98.00;;;;;;4994392;28;20919;-67
2023/08/24 05:14:33;;;;;;;12.60;7.50;;;19.80;98.00;;;;;;4961309;28;20966;-68
2023/08/24 05:17:01;;;;;;;12.17;7.80;;;20.00;98.00;;;;;;4994451;28;20453;-68
2023/08/24 05:19:28;;;;;;;14.77;8.47;;;20.10;98.00;;;;;;4977115;28;20457;-68
2023/08/24 05:21:54;;;;;;;13.30;8.00;;;20.00;98.00;;;;;;4994195;28;20452;-67
2023/08/24 05:24:21;;;;;;;12.73;7.50;;;19.90;98.00;;;;;;4993392;28;20455;-67
2023/08/24 05:26:50;;;;;;;14.70;8.60;;;19.90;98.00;;;;;;4993724;28;20455;-68
2023/08/24 05:29:17;;;;;;;13.93;8.30;;;19.90;98.00;;;;;;4993216;28;20460;-68
2023/08/24 05:31:44;;;;;;;18.20;8.33;;;19.90;98.00;;;;;;4993608;28;20484;-68
2023/08/24 05:34:11;;;;;;;13.60;8.90;;;19.90;98.00;;;;;;4993539;28;20503;-68
2023/08/24 05:36:37;;;;;;;17.07;8.80;;;19.90;98.00;;;;;;4993437;28;21017;-68
2023/08/24 05:39:04;;;;;;;12.17;8.00;;;19.90;98.00;;;;;;4993377;28;20465;-67
2023/08/24 05:41:31;;;;;;;14.30;7.80;;;19.90;98.00;;;;;;4993438;28;20456;-68
2023/08/24 05:44:01;;;;;;;15.53;8.43;;;19.90;98.00;;;;;;4993467;28;20502;-68
2023/08/24 05:46:28;;;;;;;14.83;8.17;;;20.10;98.00;;;;;;4993945;28;20452;-67
2023/08/24 05:48:56;;;;;;;11.93;7.57;;;20.20;98.00;;;;;;4993676;28;20794;-68
2023/08/24 05:51:24;;;;;;;15.23;8.60;;;20.30;98.00;;;;;;4993548;28;20491;-67
2023/08/24 05:53:55;;;;;;;12.30;7.67;;;20.50;98.00;;;;;;4976389;28;20464;-68
2023/08/24 05:56:22;;;;;;;13.53;8.20;;;20.70;98.00;;;;;;4993683;28;20552;-68
2023/08/24 05:58:50;;;;;;;12.33;7.60;;;20.80;98.00;;;;;;4976414;28;20488;-67
2023/08/24 06:01:19;;;;;;;14.57;8.40;;;20.70;98.00;;;;;;4993222;28;20457;-67
2023/08/24 06:03:46;;;;;;;15.30;8.70;;;20.80;98.00;;;;;;4993218;28;20452;-67
2023/08/24 06:06:13;;;;;;;13.77;8.23;;;20.90;98.00;;;;;;4993374;28;20943;-67
2023/08/24 06:08:40;;;;;;;12.97;7.80;;;20.90;98.00;;;;;;4993534;28;20523;-67
2023/08/24 06:11:07;;;;;;;12.03;7.27;;;21.00;98.00;;;;;;4993367;28;20452;-67
2023/08/24 06:13:34;;;;;;;13.70;7.00;;;21.10;98.00;;;;;;4993358;28;20456;-70
2023/08/24 06:16:02;;;;;;;13.47;7.00;;;21.20;98.00;;;;;;4993334;28;20963;-70
2023/08/24 06:18:31;;;;;;;13.40;7.53;;;21.40;98.00;;;;;;4993279;28;20539;-71
2023/08/24 06:20:58;;;;;;;13.63;7.40;;;21.70;98.00;;;;;;4993201;28;20464;-70
2023/08/24 06:23:28;;;;;;;12.53;7.37;;;22.00;98.00;;;;;;4993323;28;20457;-70
2023/08/24 06:25:55;;;;;;;12.57;7.60;;;22.30;98.00;;;;;;4993047;28;21080;-68
2023/08/24 06:28:23;;;;;;;13.63;7.60;;;22.50;98.00;;;;;;4960209;28;20464;-70
2023/08/24 06:30:50;;;;;;;12.80;7.53;;;22.50;98.00;;;;;;4976142;28;20460;-70
2023/08/24 06:33:18;;;;;;;12.93;8.63;;;22.50;98.00;;;;;;4993161;28;20559;-71
2023/08/24 06:35:47;;;;;;;13.83;8.50;;;22.60;98.00;;;;;;4993270;28;20464;-70
2023/08/24 06:38:15;;;;;;;11.23;7.50;;;22.80;98.00;;;;;;4992778;28;20834;-69
2023/08/24 06:40:42;;;;;;;11.60;7.90;;;23.10;98.00;;;;;;4975769;28;20460;-70
2023/08/24 06:43:09;;;;;;;14.23;8.20;;;23.30;98.00;;;;;;4993022;28;20579;-71
2023/08/24 06:45:35;;;;;;;14.97;7.63;;;23.60;98.00;;;;;;4975619;28;20457;-71
2023/08/24 06:48:02;;;;;;;12.00;7.37;;;23.60;98.00;;;;;;4992904;28;20472;-69
2023/08/24 06:50:30;;;;;;;13.50;8.10;;;23.70;98.00;;;;;;4975451;28;20453;-69
2023/08/24 06:53:00;;;;;;;12.43;7.50;;;23.70;98.00;;;;;;4975737;28;20842;-70
2023/08/24 06:55:29;;;;;;;12.80;7.80;;;23.80;98.00;;;;;;4992652;28;20463;-70
2023/08/24 06:57:56;;;;;;;12.20;7.90;;;23.90;98.00;;;;;;4992710;28;20464;-70
2023/08/24 07:00:25;;;;;;;12.37;7.70;;;24.00;98.00;;;;;;4992525;28;20511;-70
2023/08/24 07:02:53;;;;;;;10.80;6.87;;;24.10;98.00;;;;;;4991744;28;20512;-70
2023/08/24 07:05:20;;;;;;;13.90;7.97;;;23.80;98.00;;;;;;4992356;28;20530;-70
2023/08/24 07:07:48;;;;;;;13.63;8.10;;;23.90;98.00;;;;;;4992213;28;20873;-68
2023/08/24 07:10:17;;;;;;;14.17;7.80;;;23.80;98.00;;;;;;4992397;28;20796;-67
2023/08/24 07:12:45;;;;;;;11.23;7.20;;;23.60;98.00;;;;;;4992433;28;20497;-68
2023/08/24 07:15:12;;;;;;;13.13;7.57;;;23.50;98.00;;;;;;4992352;28;20905;-67
2023/08/24 07:17:39;;;;;;;13.47;7.23;;;23.40;98.00;;;;;;4992556;28;20453;-67
2023/08/24 07:20:08;;;;;;;11.40;7.80;;;23.40;98.00;;;;;;4992528;28;20475;-68
2023/08/24 07:22:35;;;;;;;16.60;8.23;;;23.20;98.00;;;;;;4992484;28;20465;-68
2023/08/24 07:25:04;;;;;;;12.10;7.60;;;23.10;98.00;;;;;;4992404;28;20456;-68
2023/08/24 07:27:33;;;;;;;12.97;7.60;;;23.00;98.00;;;;;;4992468;28;20452;-69
2023/08/24 07:30:00;;;;;;;13.40;7.50;;;23.00;98.00;;;;;;4992134;28;20460;-68
2023/08/24 07:32:28;;;;;;;13.90;6.87;;;23.10;98.00;;;;;;4992277;28;20511;-69
2023/08/24 07:34:56;;;;;;;10.33;7.10;;;23.10;98.00;;;;;;4975225;28;20556;-68
2023/08/24 07:37:28;;;;;;;12.93;7.33;;;23.10;98.00;;;;;;4992236;28;20555;-69
2023/08/24 07:39:55;;;;;;;12.00;7.47;;;23.20;98.00;;;;;;4992255;28;21017;-69
2023/08/24 07:42:23;;;;;;;10.67;6.63;;;23.40;98.00;;;;;;4991943;28;20456;-69
2023/08/24 07:44:51;;;;;;;11.30;6.90;;;23.40;98.00;;;;;;4991447;28;20457;-69
2023/08/24 07:47:18;;;;;;;10.80;7.27;;;23.50;98.00;;;;;;4991770;28;20772;-69
2023/08/24 07:49:45;;;;;;;11.40;7.00;;;23.60;98.00;;;;;;4993760;28;20452;-69
2023/08/24 07:52:13;;;;;;;12.50;7.27;;;23.60;98.00;;;;;;4977874;28;20488;-70
2023/08/24 07:54:40;;;;;;;10.30;7.00;;;23.80;98.00;;;;;;4995502;28;20467;-70
2023/08/24 07:57:07;;;;;;;11.30;7.00;;;24.00;98.00;;;;;;4978129;28;20983;-69
2023/08/24 07:59:34;;;;;;;11.90;6.67;;;24.00;98.00;;;;;;4995544;28;20789;-73
2023/08/24 08:02:03;;;;;;;12.30;7.43;;;24.10;98.00;;;;;;4995703;28;20452;-68
2023/08/24 08:04:38;;;;;;;10.67;7.10;;;24.10;98.00;;;;;;4995368;28;20459;-69
2023/08/24 08:07:06;;;;;;;11.70;7.03;;;24.20;98.00;;;;;;4995319;28;20462;-67
2023/08/24 08:09:34;;;;;;;12.80;6.60;;;24.30;98.00;;;;;;4978537;28;20475;-68
2023/08/24 08:12:01;;;;;;;11.40;7.00;;;24.30;98.00;;;;;;4995428;28;20492;-68
2023/08/24 08:14:28;;;;;;;11.13;7.00;;;24.50;98.00;;;;;;4995084;28;20792;-68
2023/08/24 08:16:55;;;;;;;11.87;7.33;;;24.60;98.00;;;;;;4995473;28;20453;-69
2023/08/24 08:19:26;;;;;;;12.80;7.63;;;24.70;98.00;;;;;;4995345;28;20805;-69
2023/08/24 08:21:53;;;;;;;12.33;7.50;;;24.90;98.00;;;;;;4995671;28;20483;-68
2023/08/24 08:24:20;;;;;;;14.53;7.30;;;25.10;98.00;;;;;;4995318;28;20957;-68
2023/08/24 08:26:48;;;;;;;13.57;7.27;;;25.30;98.00;;;;;;4995560;28;20463;-68
2023/08/24 08:29:16;;;;;;;14.37;7.50;;;25.40;98.00;;;;;;4995155;28;20468;-69
2023/08/24 08:31:46;;;;;;;14.23;7.57;;;25.60;98.00;;;;;;4995287;28;20451;-69
2023/08/24 08:34:13;;;;;;;14.33;7.37;;;25.70;98.00;;;;;;4977847;28;20456;-67
2023/08/24 08:36:42;;;;;;;12.43;7.43;;;25.80;98.00;;;;;;4977876;28;20954;-65
2023/08/24 08:39:10;;;;;;;12.30;7.10;;;25.90;98.00;;;;;;4994728;28;20543;-65
2023/08/24 08:41:44;;;;;;;10.47;6.60;;;26.00;98.00;;;;;;4977953;28;20448;-65
2023/08/24 08:44:14;;;;;;;10.17;6.97;;;26.10;98.00;;;;;;4994405;28;20452;-65
2023/08/24 08:46:42;;;;;;;12.23;7.57;;;26.20;98.00;;;;;;4995057;28;20827;-65
2023/08/24 08:49:10;;;;;;;11.07;6.60;;;26.30;98.00;;;;;;4994423;28;20955;-69
2023/08/24 08:51:38;;;;;;;10.87;6.90;;;26.40;98.00;;;;;;4994037;28;20467;-70
2023/08/24 08:54:10;;;;;;;14.60;7.50;;;26.60;98.00;;;;;;4994364;28;20491;-69
2023/08/24 08:56:38;;;;;;;10.93;6.97;;;26.70;98.00;;;;;;4994396;28;20817;-73
2023/08/24 08:59:09;;;;;;;11.63;7.63;;;26.70;98.00;;;;;;4994618;28;20456;-70
2023/08/24 09:01:38;;;;;;;12.30;7.90;;;27.00;98.00;;;;;;4994375;28;20464;-72
2023/08/24 09:04:07;;;;;;;11.10;6.77;;;27.10;98.00;;;;;;4994041;28;20483;-69
2023/08/24 09:06:42;;;;;;;10.17;6.60;;;27.10;98.00;;;;;;4994477;28;20543;-70
2023/08/24 09:09:11;;;;;;;12.97;7.90;;;27.10;98.00;;;;;;4994254;28;20486;-70
2023/08/24 09:11:39;;;;;;;11.60;6.77;;;27.20;98.00;;;;;;4994584;28;20866;-70
2023/08/24 09:14:07;;;;;;;13.90;7.73;;;27.40;98.00;;;;;;4994291;28;20496;-73
2023/08/24 09:16:34;;;;;;;11.77;7.10;;;27.50;98.00;;;;;;4993835;28;20463;-71
2023/08/24 09:19:07;;;;;;;18.20;7.40;;;27.60;98.00;;;;;;4993949;28;20469;-70
2023/08/24 09:21:41;;;;;;;11.40;7.10;;;27.70;98.00;;;;;;4994317;28;20453;-71
2023/08/24 09:24:12;;;;;;;11.50;7.13;;;27.80;98.00;;;;;;4994396;28;20452;-68
2023/08/24 09:26:42;;;;;;;11.07;7.00;;;28.00;98.00;;;;;;4994352;28;20448;-70
2023/08/24 09:29:15;;;;;;;11.33;7.13;;;28.10;98.00;;;;;;4993714;28;20472;-71
2023/08/24 09:31:43;;;;;;;12.50;6.93;;;28.30;98.00;;;;;;4993929;28;20449;-71
2023/08/24 09:34:12;;;;;;;11.53;7.40;;;28.40;98.00;;;;;;4976658;28;20579;-71
2023/08/24 09:36:41;;;;;;;12.20;7.43;;;28.60;98.00;;;;;;4993875;28;20460;-67
2023/08/24 09:39:10;;;;;;;11.37;7.17;;;28.70;98.00;;;;;;4993993;28;20900;-66
2023/08/24 09:41:40;;;;;;;11.80;7.50;;;28.90;98.00;;;;;;4993623;28;20465;-66
2023/08/24 09:44:08;;;;;;;10.83;7.43;;;29.00;98.00;;;;;;4993887;28;20452;-66
2023/08/24 09:46:37;;;;;;;12.10;7.40;;;29.20;98.00;;;;;;4992890;28;20552;-66
2023/08/24 09:49:07;;;;;;;11.30;7.03;;;29.30;98.00;;;;;;4993520;28;20448;-66
2023/08/24 09:51:35;;;;;;;15.23;7.73;;;29.50;98.00;;;;;;4993259;28;20487;-66
2023/08/24 09:54:08;;;;;;;12.30;7.70;;;29.70;98.00;;;;;;4993457;28;20489;-66
2023/08/24 09:56:38;;;;;;;13.00;7.80;;;29.90;98.00;;;;;;4993600;28;20448;-65
2023/08/24 09:59:13;;;;;;;11.20;7.07;;;29.90;98.00;;;;;;4993337;28;20456;-66
2023/08/24 10:01:46;;;;;;;11.80;6.90;;;29.90;98.00;;;;;;4993394;28;20935;-66
2023/08/24 10:04:13;;;;;;;10.93;7.40;;;30.10;98.00;;;;;;4993360;28;20539;-66
2023/08/24 10:06:41;;;;;;;11.90;7.60;;;30.30;98.00;;;;;;4993557;28;20464;-67
2023/08/24 10:09:12;;;;;;;10.47;7.57;;;30.40;98.00;;;;;;4993011;28;20456;-66
2023/08/24 10:11:50;;;;;;;10.73;6.70;;;30.60;98.00;;;;;;4992718;28;20468;-66
2023/08/24 10:14:25;;;;;;;9.50;6.90;;;30.70;98.00;;;;;;4993215;28;20547;-66
2023/08/24 10:16:55;;;;;;;11.47;7.50;;;30.90;98.00;;;;;;4993228;28;20471;-66
2023/08/24 10:19:23;;;;;;;13.27;7.73;;;31.10;98.00;;;;;;4993276;28;20591;-66
2023/08/24 10:21:52;;;;;;;12.07;7.10;;;31.20;98.00;;;;;;4992955;28;20463;-66
2023/08/24 10:24:21;;;;;;;10.40;6.90;;;31.40;98.00;;;;;;4993062;28;20560;-66
2023/08/24 10:26:51;;;;;;;11.27;7.23;;;31.50;98.00;;;;;;4976350;28;20488;-66
2023/08/24 10:29:19;;;;;;;12.60;7.73;;;31.70;98.00;;;;;;4992691;28;20527;-66
2023/08/24 10:31:46;;;;;;;14.63;7.47;;;31.80;98.00;;;;;;4975616;28;20460;-66
2023/08/24 10:34:14;;;;;;;11.23;7.57;;;32.00;98.00;;;;;;4992486;28;20527;-66
2023/08/24 10:36:41;;;;;;;13.37;8.07;;;32.10;98.00;;;;;;4975202;28;20507;-66
2023/08/24 10:39:10;;;;;;;11.10;7.40;;;32.20;98.00;;;;;;4992703;28;20456;-66
2023/08/24 10:41:52;;;;;;;10.83;7.77;;;32.30;98.00;;;;;;4992604;28;20552;-66
2023/08/24 10:44:23;;;;;;;10.40;7.20;;;32.60;98.00;;;;;;4992556;28;20459;-66
2023/08/24 10:47:15;;;;;;;14.30;8.17;;;32.60;98.00;;;;;;4974819;28;20464;-66
2023/08/24 10:49:43;;;;;;;10.60;7.50;;;32.70;97.80;;;;;;4992741;28;20481;-66
2023/08/24 10:52:21;;;;;;;10.10;7.00;;;32.90;96.80;;;;;;4975467;28;20453;-66
2023/08/24 10:54:52;;;;;;;12.23;7.63;;;33.10;98.00;;;;;;4992686;28;20566;-66
2023/08/24 10:57:23;;;;;;;13.93;7.87;;;33.30;96.70;;;;;;4992671;28;20803;-66
2023/08/24 11:00:01;;;;;;;13.10;7.40;;;33.50;95.00;;;;;;4992443;28;20460;-66
2023/08/24 11:02:29;;;;;;;12.33;7.70;;;33.70;95.90;;;;;;4992706;28;20571;-66
2023/08/24 11:05:07;;;;;;;11.30;7.47;;;33.80;95.40;;;;;;4992456;28;20449;-66
2023/08/24 11:07:34;;;;;;;11.80;7.27;;;33.90;94.10;;;;;;4992718;28;20463;-66
2023/08/24 11:10:12;;;;;;;12.33;7.80;;;34.00;94.30;;;;;;4992460;28;21021;-66
2023/08/24 11:13:12;;;;;;;11.17;7.83;;;34.20;94.00;;;;;;4992464;28;21017;-66
2023/08/24 11:15:41;;;;;;;11.77;7.33;;;34.40;93.50;;;;;;4992594;28;20456;-66
2023/08/24 11:18:20;;;;;;;11.87;7.20;;;34.60;93.20;;;;;;4992686;28;20453;-66
2023/08/24 11:20:48;;;;;;;11.70;7.50;;;34.70;93.90;;;;;;4992768;28;20452;-66
2023/08/24 11:23:18;;;;;;;15.07;7.60;;;34.70;94.50;;;;;;4993155;28;20948;-66
2023/08/24 11:25:45;;;;;;;11.13;7.53;;;34.60;93.20;;;;;;4996218;28;20515;-66
2023/08/24 11:28:19;;;;;;;11.00;7.60;;;34.50;92.40;;;;;;4996112;28;20472;-66
2023/08/24 11:30:46;;;;;;;11.30;7.93;;;34.60;92.80;;;;;;4978511;28;20475;-66
2023/08/24 11:33:14;;;;;;;10.43;6.70;;;34.70;92.80;;;;;;4996114;28;20483;-66
2023/08/24 11:35:44;;;;;;;11.27;7.60;;;34.80;92.40;;;;;;4995858;28;20894;-66
2023/08/24 11:38:12;;;;;;;13.77;7.80;;;34.90;92.10;;;;;;4995559;28;20507;-66
2023/08/24 11:40:39;;;;;;;10.80;7.40;;;35.00;91.90;;;;;;4996067;28;20456;-64
2023/08/24 11:43:06;;;;;;;10.90;7.13;;;35.20;93.20;;;;;;4996119;28;20463;-63
2023/08/24 11:45:38;;;;;;;12.97;7.77;;;35.40;91.30;;;;;;4995924;28;20800;-65
2023/08/24 11:48:06;;;;;;;11.40;7.67;;;35.70;90.80;;;;;;4995600;28;20900;-69
2023/08/24 11:50:35;;;;;;;11.07;7.67;;;35.50;91.70;;;;;;4995924;28;20951;-69
2023/08/24 11:53:02;;;;;;;10.93;7.50;;;35.40;91.40;;;;;;4995907;28;20547;-69
2023/08/24 11:55:29;;;;;;;13.60;7.90;;;35.40;92.20;;;;;;4978780;28;20452;-69
2023/08/24 11:57:59;;;;;;;10.33;7.77;;;35.50;90.50;;;;;;4995877;28;20547;-69
2023/08/24 12:00:27;;;;;;;13.43;8.10;;;35.50;91.20;;;;;;4995543;28;20928;-68
2023/08/24 12:02:56;;;;;;;16.83;6.83;;;35.50;89.60;;;;;;4996020;28;20523;-68
2023/08/24 12:05:24;;;;;;;12.53;7.60;;;35.60;91.90;;;;;;4995848;28;20453;-70
2023/08/24 12:07:54;;;;;;;10.13;7.03;;;35.70;89.70;;;;;;4979021;28;20465;-68
2023/08/24 12:10:21;;;;;;;12.43;7.37;;;35.70;91.00;;;;;;4978095;28;20951;-70
2023/08/24 12:12:49;;;;;;;12.20;7.10;;;35.90;90.60;;;;;;4995689;28;20457;-69
2023/08/24 12:15:19;;;;;;;10.93;7.20;;;36.00;89.40;;;;;;4994916;28;20456;-69
2023/08/24 12:17:47;;;;;;;10.13;7.17;;;36.00;88.40;;;;;;4995880;28;20888;-70
2023/08/24 12:20:23;;;;;;;10.00;7.00;;;35.90;89.50;;;;;;4995446;28;20451;-69
2023/08/24 12:22:54;;;;;;;10.83;7.30;;;35.90;88.80;;;;;;4995455;28;20459;-68
2023/08/24 12:25:25;;;;;;;17.50;7.70;;;36.00;89.70;;;;;;4994971;28;20452;-68
2023/08/24 12:27:53;;;;;;;14.07;7.30;;;36.30;88.10;;;;;;4977971;28;20453;-67
2023/08/24 12:30:23;;;;;;;11.40;7.40;;;36.50;86.90;;;;;;4995137;28;20459;-68
2023/08/24 12:32:51;;;;;;;10.13;6.90;;;36.60;87.90;;;;;;4995651;28;20878;-68
2023/08/24 12:35:18;;;;;;;12.10;6.80;;;36.90;86.90;;;;;;4994235;28;20492;-67
2023/08/24 12:37:47;;;;;;;10.40;6.53;;;37.10;86.50;;;;;;4994973;28;20468;-67
2023/08/24 12:40:14;;;;;;;8.80;6.23;;;37.30;84.50;;;;;;4977773;28;20864;-68
2023/08/24 12:42:42;;;;;;;9.37;5.77;;;37.40;83.50;;;;;;4995032;28;20449;-67
2023/08/24 12:45:10;;;;;;;8.53;6.13;;;37.60;81.80;;;;;;4977645;28;20456;-67